ITY2227 EHRD-EGKK
Flight info
| Callsign | ITY2227 |
|---|---|
| Flight time | 0h 42m |
| Altitude | 24000 |
| Route | SOMEL2A ABNED Z344 AMRIV Q63 ARREK Y4 TEBRA TEBRA2G |
| Aircraft | A20N/M-SDE2E3FGHIRWXY/LB1 |
Departure
| Time | 2026-05-06 12:49 |
|---|---|
| Airport | Rotterdam The Hague Airport (EHRD) |
Arrival
| Time | 2026-05-06 13:31 |
|---|---|
| Airport | London Gatwick Airport (EGKK) |
| Time | Latitude | Longitude | Altitude | Speed | Heading |
|---|---|---|---|---|---|
| 2026-05-06 12:27 | 51.94967 | 4.43637 | 0 ft | 0 kts | 327° |
| 2026-05-06 12:45 | 51.95005 | 4.43635 | 0 ft | 6 kts | 35° |
| 2026-05-06 12:46 | 51.95051 | 4.43636 | 0 ft | 9 kts | 331° |
| 2026-05-06 12:46 | 51.95120 | 4.43564 | 0 ft | 15 kts | 327° |
| 2026-05-06 12:46 | 51.95204 | 4.43475 | 0 ft | 5 kts | 327° |
| 2026-05-06 12:46 | 51.95228 | 4.43452 | 0 ft | 10 kts | 328° |
| 2026-05-06 12:47 | 51.95217 | 4.43336 | 0 ft | 16 kts | 237° |
| 2026-05-06 12:47 | 51.95190 | 4.43268 | 0 ft | 7 kts | 237° |
| 2026-05-06 12:47 | 51.95156 | 4.43146 | 0 ft | 16 kts | 270° |
| 2026-05-06 12:47 | 51.95177 | 4.43103 | 0 ft | 0 kts | 336° |
| 2026-05-06 12:48 | 51.95180 | 4.43102 | 0 ft | 3 kts | 341° |
| 2026-05-06 12:48 | 51.95238 | 4.43100 | 1 ft | 13 kts | 1° |
| 2026-05-06 12:48 | 51.95327 | 4.43131 | 2 ft | 15 kts | 37° |
| 2026-05-06 12:49 | 51.95454 | 4.43449 | -1 ft | 72 kts | 57° |
| 2026-05-06 12:49 | 51.95878 | 4.44493 | 0 ft | 146 kts | 56° |
| 2026-05-06 12:49 | 51.96479 | 4.45984 | 352 ft | 171 kts | 56° |
| 2026-05-06 12:49 | 51.97138 | 4.47604 | 1098 ft | 178 kts | 51° |
| 2026-05-06 12:50 | 51.97940 | 4.49270 | 1745 ft | 198 kts | 49° |
| 2026-05-06 12:50 | 51.98826 | 4.50973 | 2643 ft | 212 kts | 47° |
| 2026-05-06 12:50 | 51.99778 | 4.52465 | 3869 ft | 189 kts | 26° |
| 2026-05-06 12:50 | 52.01070 | 4.52726 | 4360 ft | 204 kts | 337° |
| 2026-05-06 12:51 | 52.02125 | 4.51266 | 5020 ft | 211 kts | 296° |
| 2026-05-06 12:51 | 52.02501 | 4.48845 | 5206 ft | 251 kts | 265° |
| 2026-05-06 12:51 | 52.02072 | 4.45847 | 4862 ft | 308 kts | 252° |
| 2026-05-06 12:51 | 52.01387 | 4.42403 | 5014 ft | 339 kts | 254° |
| 2026-05-06 12:52 | 52.00805 | 4.38752 | 6134 ft | 335 kts | 257° |
| 2026-05-06 12:52 | 52.00305 | 4.35128 | 7648 ft | 323 kts | 258° |
| 2026-05-06 12:52 | 51.99847 | 4.31575 | 8695 ft | 327 kts | 259° |
| 2026-05-06 12:52 | 51.99395 | 4.27960 | 9612 ft | 332 kts | 259° |
| 2026-05-06 12:53 | 51.98938 | 4.24297 | 10539 ft | 336 kts | 259° |
| 2026-05-06 12:53 | 51.98471 | 4.20568 | 11435 ft | 341 kts | 259° |
| 2026-05-06 12:53 | 51.97784 | 4.16881 | 12283 ft | 346 kts | 244° |
| 2026-05-06 12:53 | 51.96446 | 4.13655 | 13106 ft | 352 kts | 233° |
| 2026-05-06 12:54 | 51.95031 | 4.10389 | 13918 ft | 356 kts | 241° |
| 2026-05-06 12:54 | 51.94010 | 4.06716 | 14711 ft | 359 kts | 252° |
| 2026-05-06 12:54 | 51.93468 | 4.02763 | 15475 ft | 363 kts | 261° |
| 2026-05-06 12:54 | 51.93086 | 3.98749 | 16212 ft | 367 kts | 261° |
| 2026-05-06 12:55 | 51.92694 | 3.94643 | 16941 ft | 371 kts | 261° |
| 2026-05-06 12:55 | 51.92288 | 3.90443 | 17654 ft | 375 kts | 261° |
| 2026-05-06 12:55 | 51.91883 | 3.86271 | 18350 ft | 380 kts | 261° |
| 2026-05-06 12:55 | 51.91465 | 3.81998 | 19025 ft | 384 kts | 261° |
| 2026-05-06 12:56 | 51.91046 | 3.77743 | 19682 ft | 388 kts | 261° |
| 2026-05-06 12:56 | 51.90620 | 3.73419 | 20324 ft | 391 kts | 261° |
| 2026-05-06 12:56 | 51.90187 | 3.69049 | 20949 ft | 395 kts | 261° |
| 2026-05-06 12:56 | 51.89748 | 3.64644 | 21560 ft | 399 kts | 261° |
| 2026-05-06 12:57 | 51.89302 | 3.60171 | 22156 ft | 403 kts | 261° |
| 2026-05-06 12:57 | 51.88852 | 3.55682 | 22732 ft | 406 kts | 261° |
| 2026-05-06 12:57 | 51.88395 | 3.51140 | 23297 ft | 410 kts | 261° |
| 2026-05-06 12:57 | 51.87935 | 3.46591 | 23842 ft | 414 kts | 261° |
| 2026-05-06 12:58 | 51.87469 | 3.42002 | 24376 ft | 417 kts | 261° |
| 2026-05-06 12:58 | 51.86994 | 3.37337 | 24894 ft | 421 kts | 261° |
| 2026-05-06 12:58 | 51.86513 | 3.32637 | 25399 ft | 424 kts | 261° |
| 2026-05-06 12:58 | 51.86032 | 3.27953 | 25875 ft | 427 kts | 261° |
| 2026-05-06 12:59 | 51.85541 | 3.23218 | 26337 ft | 430 kts | 260° |
| 2026-05-06 12:59 | 51.84866 | 3.18598 | 26763 ft | 434 kts | 253° |
| 2026-05-06 12:59 | 51.83868 | 3.14037 | 26983 ft | 436 kts | 248° |
| 2026-05-06 12:59 | 51.82584 | 3.09710 | 26888 ft | 433 kts | 243° |
| 2026-05-06 13:00 | 51.81222 | 3.05460 | 26458 ft | 431 kts | 243° |
| 2026-05-06 13:00 | 51.79857 | 3.01171 | 25877 ft | 427 kts | 243° |
| 2026-05-06 13:00 | 51.78513 | 2.96940 | 25252 ft | 423 kts | 243° |
| 2026-05-06 13:00 | 51.77182 | 2.92748 | 24616 ft | 419 kts | 243° |
| 2026-05-06 13:01 | 51.75847 | 2.88548 | 24159 ft | 412 kts | 243° |
| 2026-05-06 13:01 | 51.74546 | 2.84464 | 24023 ft | 414 kts | 243° |
| 2026-05-06 13:01 | 51.73224 | 2.80320 | 24000 ft | 417 kts | 243° |
| 2026-05-06 13:01 | 51.71901 | 2.76181 | 24000 ft | 416 kts | 243° |
| 2026-05-06 13:02 | 51.70577 | 2.72041 | 24000 ft | 416 kts | 244° |
| 2026-05-06 13:02 | 51.69423 | 2.67730 | 24000 ft | 416 kts | 251° |
| 2026-05-06 13:02 | 51.68608 | 2.63244 | 24001 ft | 415 kts | 257° |
| 2026-05-06 13:02 | 51.68127 | 2.58727 | 24001 ft | 415 kts | 262° |
| 2026-05-06 13:03 | 51.67721 | 2.54047 | 24000 ft | 415 kts | 262° |
| 2026-05-06 13:03 | 51.67316 | 2.49499 | 24000 ft | 415 kts | 262° |
| 2026-05-06 13:03 | 51.66899 | 2.44893 | 24000 ft | 415 kts | 262° |
| 2026-05-06 13:03 | 51.66477 | 2.40276 | 24000 ft | 415 kts | 262° |
| 2026-05-06 13:04 | 51.66051 | 2.35652 | 24000 ft | 415 kts | 262° |
| 2026-05-06 13:04 | 51.65631 | 2.31105 | 24000 ft | 415 kts | 262° |
| 2026-05-06 13:04 | 51.65203 | 2.26501 | 24000 ft | 415 kts | 262° |
| 2026-05-06 13:04 | 51.64772 | 2.21874 | 24001 ft | 415 kts | 262° |
| 2026-05-06 13:05 | 51.64349 | 2.17351 | 24000 ft | 415 kts | 262° |
| 2026-05-06 13:05 | 51.63915 | 2.12733 | 24000 ft | 415 kts | 262° |
| 2026-05-06 13:05 | 51.63482 | 2.08131 | 24000 ft | 415 kts | 262° |
| 2026-05-06 13:05 | 51.63052 | 2.03513 | 24000 ft | 415 kts | 262° |
| 2026-05-06 13:06 | 51.62628 | 1.98947 | 24000 ft | 415 kts | 262° |
| 2026-05-06 13:06 | 51.62249 | 1.94323 | 24001 ft | 415 kts | 265° |
| 2026-05-06 13:06 | 51.61899 | 1.89754 | 23999 ft | 415 kts | 258° |
| 2026-05-06 13:06 | 51.61003 | 1.85312 | 24001 ft | 416 kts | 246° |
| 2026-05-06 13:07 | 51.59601 | 1.81277 | 24000 ft | 417 kts | 237° |
| 2026-05-06 13:07 | 51.57875 | 1.77512 | 24000 ft | 417 kts | 232° |
| 2026-05-06 13:07 | 51.55993 | 1.73922 | 24000 ft | 418 kts | 230° |
| 2026-05-06 13:07 | 51.54076 | 1.70452 | 24000 ft | 418 kts | 229° |
| 2026-05-06 13:08 | 51.52555 | 1.67733 | 24000 ft | 418 kts | 229° |
| 2026-05-06 13:08 | 51.50634 | 1.64300 | 24000 ft | 418 kts | 229° |
| 2026-05-06 13:08 | 51.48715 | 1.60856 | 24000 ft | 418 kts | 229° |
| 2026-05-06 13:08 | 51.46795 | 1.57378 | 23930 ft | 415 kts | 229° |
| 2026-05-06 13:09 | 51.44883 | 1.53905 | 23555 ft | 413 kts | 229° |
| 2026-05-06 13:09 | 51.42988 | 1.50465 | 23000 ft | 410 kts | 229° |
| 2026-05-06 13:09 | 51.41103 | 1.47046 | 22382 ft | 406 kts | 229° |
| 2026-05-06 13:09 | 51.39249 | 1.43689 | 21760 ft | 403 kts | 229° |
| 2026-05-06 13:10 | 51.37412 | 1.40366 | 21126 ft | 399 kts | 229° |
| 2026-05-06 13:10 | 51.35607 | 1.37103 | 20512 ft | 395 kts | 229° |
| 2026-05-06 13:10 | 51.33856 | 1.33941 | 19910 ft | 392 kts | 229° |
| 2026-05-06 13:10 | 51.31994 | 1.30822 | 19295 ft | 388 kts | 224° |
| 2026-05-06 13:11 | 51.30012 | 1.27945 | 18677 ft | 385 kts | 223° |
| 2026-05-06 13:11 | 51.28051 | 1.25125 | 18067 ft | 381 kts | 223° |
| 2026-05-06 13:11 | 51.26092 | 1.22313 | 17456 ft | 378 kts | 223° |
| 2026-05-06 13:11 | 51.24147 | 1.19520 | 16840 ft | 374 kts | 223° |
| 2026-05-06 13:12 | 51.22231 | 1.16767 | 16231 ft | 371 kts | 223° |
| 2026-05-06 13:12 | 51.20316 | 1.14017 | 15631 ft | 368 kts | 223° |
| 2026-05-06 13:12 | 51.18446 | 1.11333 | 15032 ft | 365 kts | 223° |
| 2026-05-06 13:12 | 51.16588 | 1.08668 | 14501 ft | 361 kts | 223° |
| 2026-05-06 13:13 | 51.14789 | 1.06094 | 14329 ft | 346 kts | 223° |
| 2026-05-06 13:13 | 51.13035 | 1.03587 | 14193 ft | 331 kts | 223° |
| 2026-05-06 13:13 | 51.11350 | 1.01179 | 14066 ft | 318 kts | 223° |
| 2026-05-06 13:13 | 51.09740 | 0.98881 | 14003 ft | 303 kts | 223° |
| 2026-05-06 13:14 | 51.08197 | 0.96679 | 14000 ft | 298 kts | 223° |
| 2026-05-06 13:14 | 51.06643 | 0.94461 | 14000 ft | 301 kts | 223° |
| 2026-05-06 13:14 | 51.05101 | 0.92263 | 13995 ft | 300 kts | 223° |
| 2026-05-06 13:14 | 51.03569 | 0.90074 | 13999 ft | 300 kts | 224° |
| 2026-05-06 13:15 | 51.02359 | 0.87462 | 13997 ft | 297 kts | 248° |
| 2026-05-06 13:15 | 51.01673 | 0.84405 | 13999 ft | 298 kts | 252° |
| 2026-05-06 13:15 | 51.01023 | 0.81292 | 13997 ft | 297 kts | 252° |
| 2026-05-06 13:15 | 51.00372 | 0.78164 | 14001 ft | 297 kts | 252° |
| 2026-05-06 13:16 | 50.99716 | 0.75040 | 14004 ft | 297 kts | 252° |
| 2026-05-06 13:16 | 50.99057 | 0.71928 | 14000 ft | 297 kts | 252° |
| 2026-05-06 13:16 | 50.98395 | 0.68816 | 14001 ft | 297 kts | 252° |
| 2026-05-06 13:16 | 50.97740 | 0.65724 | 14001 ft | 298 kts | 252° |
| 2026-05-06 13:17 | 50.97088 | 0.62621 | 14003 ft | 298 kts | 251° |
| 2026-05-06 13:17 | 50.96206 | 0.59661 | 13998 ft | 298 kts | 243° |
| 2026-05-06 13:17 | 50.95227 | 0.56725 | 14002 ft | 298 kts | 243° |
| 2026-05-06 13:17 | 50.94260 | 0.53861 | 14001 ft | 298 kts | 243° |
| 2026-05-06 13:18 | 50.93283 | 0.50966 | 13949 ft | 297 kts | 243° |
| 2026-05-06 13:18 | 50.92323 | 0.48117 | 13684 ft | 295 kts | 243° |
| 2026-05-06 13:18 | 50.91359 | 0.45251 | 13294 ft | 294 kts | 243° |
| 2026-05-06 13:18 | 50.90466 | 0.42337 | 12884 ft | 292 kts | 254° |
| 2026-05-06 13:19 | 50.90301 | 0.39217 | 12467 ft | 290 kts | 278° |
| 2026-05-06 13:19 | 50.91013 | 0.36254 | 12038 ft | 289 kts | 304° |
| 2026-05-06 13:19 | 50.92444 | 0.34084 | 11615 ft | 290 kts | 325° |
| 2026-05-06 13:19 | 50.94139 | 0.32368 | 11223 ft | 289 kts | 326° |
| 2026-05-06 13:20 | 50.95831 | 0.30673 | 10828 ft | 287 kts | 326° |
| 2026-05-06 13:20 | 50.97533 | 0.28968 | 10415 ft | 286 kts | 326° |
| 2026-05-06 13:20 | 50.99165 | 0.27334 | 10036 ft | 284 kts | 326° |
| 2026-05-06 13:20 | 51.00807 | 0.25689 | 9647 ft | 282 kts | 326° |
| 2026-05-06 13:21 | 51.02438 | 0.24056 | 9245 ft | 280 kts | 326° |
| 2026-05-06 13:21 | 51.04068 | 0.22424 | 8859 ft | 279 kts | 326° |
| 2026-05-06 13:21 | 51.05524 | 0.20460 | 8442 ft | 274 kts | 305° |
| 2026-05-06 13:21 | 51.06273 | 0.17765 | 8022 ft | 271 kts | 279° |
| 2026-05-06 13:22 | 51.06221 | 0.14873 | 7620 ft | 269 kts | 261° |
| 2026-05-06 13:22 | 51.05931 | 0.12004 | 7246 ft | 268 kts | 261° |
| 2026-05-06 13:22 | 51.05632 | 0.09083 | 7044 ft | 266 kts | 261° |
| 2026-05-06 13:22 | 51.05331 | 0.06140 | 7002 ft | 268 kts | 261° |
| 2026-05-06 13:23 | 51.05038 | 0.03296 | 7000 ft | 267 kts | 261° |
| 2026-05-06 13:23 | 51.04742 | 0.00412 | 7003 ft | 267 kts | 261° |
| 2026-05-06 13:23 | 51.04449 | -0.02430 | 6976 ft | 266 kts | 261° |
| 2026-05-06 13:23 | 51.04251 | -0.04348 | 6839 ft | 265 kts | 261° |
| 2026-05-06 13:24 | 51.03956 | -0.07207 | 6504 ft | 264 kts | 261° |
| 2026-05-06 13:24 | 51.03660 | -0.10065 | 6138 ft | 263 kts | 261° |
| 2026-05-06 13:24 | 51.03371 | -0.12856 | 5758 ft | 261 kts | 261° |
| 2026-05-06 13:24 | 51.03085 | -0.15683 | 5374 ft | 260 kts | 263° |
| 2026-05-06 13:25 | 51.02998 | -0.18528 | 4995 ft | 258 kts | 270° |
| 2026-05-06 13:25 | 51.03026 | -0.21353 | 4618 ft | 257 kts | 271° |
| 2026-05-06 13:25 | 51.03058 | -0.24205 | 4238 ft | 256 kts | 271° |
| 2026-05-06 13:25 | 51.03088 | -0.27009 | 3867 ft | 254 kts | 271° |
| 2026-05-06 13:26 | 51.03118 | -0.29797 | 3501 ft | 253 kts | 271° |
| 2026-05-06 13:26 | 51.03147 | -0.32580 | 3162 ft | 250 kts | 271° |
| 2026-05-06 13:26 | 51.03177 | -0.35360 | 3051 ft | 253 kts | 271° |
| 2026-05-06 13:26 | 51.03206 | -0.38142 | 3035 ft | 251 kts | 271° |
| 2026-05-06 13:27 | 51.03234 | -0.40892 | 3035 ft | 251 kts | 271° |
| 2026-05-06 13:27 | 51.03262 | -0.43669 | 3036 ft | 252 kts | 271° |
| 2026-05-06 13:27 | 51.03632 | -0.46329 | 3036 ft | 253 kts | 296° |
| 2026-05-06 13:27 | 51.04777 | -0.48403 | 3033 ft | 256 kts | 325° |
| 2026-05-06 13:28 | 51.06428 | -0.49498 | 3034 ft | 258 kts | 341° |
| 2026-05-06 13:28 | 51.08160 | -0.50258 | 3031 ft | 260 kts | 351° |
| 2026-05-06 13:28 | 51.09947 | -0.49928 | 3037 ft | 265 kts | 20° |
| 2026-05-06 13:28 | 51.11433 | -0.48304 | 3033 ft | 269 kts | 47° |
| 2026-05-06 13:29 | 51.12603 | -0.45979 | 3033 ft | 269 kts | 51° |
| 2026-05-06 13:29 | 51.13692 | -0.43620 | 3189 ft | 258 kts | 66° |
| 2026-05-06 13:29 | 51.13848 | -0.40830 | 3601 ft | 268 kts | 96° |
| 2026-05-06 13:29 | 51.13877 | -0.37839 | 2815 ft | 262 kts | 62° |
| 2026-05-06 13:30 | 51.14767 | -0.35703 | 3724 ft | 229 kts | 61° |
| 2026-05-06 13:30 | 51.14816 | -0.33127 | 3685 ft | 259 kts | 114° |
| 2026-05-06 13:30 | 51.14045 | -0.30396 | 2398 ft | 288 kts | 109° |
| 2026-05-06 13:30 | 51.13737 | -0.27186 | 1375 ft | 289 kts | 88° |
| 2026-05-06 13:31 | 51.14115 | -0.24206 | 822 ft | 267 kts | 75° |
| 2026-05-06 13:31 | 51.14462 | -0.21541 | 294 ft | 230 kts | 76° |
| 2026-05-06 13:31 | 51.14771 | -0.19448 | 209 ft | 158 kts | 77° |
| 2026-05-06 13:31 | 51.14887 | -0.18469 | 212 ft | 45 kts | 81° |
| 2026-05-06 13:32 | 51.14935 | -0.18131 | 205 ft | 28 kts | 77° |
| 2026-05-06 13:32 | 51.14998 | -0.17924 | 210 ft | 21 kts | 57° |
| 2026-05-06 13:32 | 51.15066 | -0.17781 | 205 ft | 9 kts | 48° |
| 2026-05-06 13:32 | 51.15069 | -0.17776 | 205 ft | 0 kts | 47° |
| 2026-05-06 13:34 | 51.15075 | -0.17766 | 211 ft | 2 kts | 39° |
| 2026-05-06 13:34 | 51.15096 | -0.17756 | 209 ft | 4 kts | 7° |
| 2026-05-06 13:34 | 51.15137 | -0.17761 | 207 ft | 11 kts | 354° |
| 2026-05-06 13:34 | 51.15201 | -0.17772 | 210 ft | 7 kts | 353° |
| 2026-05-06 13:35 | 51.15213 | -0.17776 | 210 ft | 0 kts | 348° |
| 2026-05-06 13:37 | 51.15237 | -0.17799 | 214 ft | 14 kts | 316° |
| 2026-05-06 13:38 | 51.15233 | -0.17948 | 211 ft | 20 kts | 259° |
| 2026-05-06 13:38 | 51.15265 | -0.18109 | 208 ft | 11 kts | 350° |
| 2026-05-06 13:38 | 51.15369 | -0.18137 | 214 ft | 24 kts | 349° |
| 2026-05-06 13:38 | 51.15466 | -0.18047 | 206 ft | 8 kts | 72° |
| 2026-05-06 13:39 | 51.15487 | -0.17905 | 208 ft | 16 kts | 77° |
| 2026-05-06 13:39 | 51.15515 | -0.17798 | 212 ft | 2 kts | 2° |
| 2026-05-06 13:39 | 51.15545 | -0.17807 | 207 ft | 2 kts | 350° |
| 2026-05-06 13:39 | 51.15552 | -0.17809 | 208 ft | 2 kts | 350° |
| 2026-05-06 13:40 | 51.15557 | -0.17811 | 207 ft | 0 kts | 350° |